Terminal Aerodrome Forecast
Issued by NWS Atlanta, GA

Home | Current Version | Previous Version | Text Only | Print | Product List | Glossary On
Versions: 1 2 3 4 5 6 7 8 9 10 11 12 13 14 15 16
000
FTUS42 KFFC 031129
TAFMCN
TAF
KMCN 031129Z 0312/0412 00000KT P6SM BKN250
     FM031500 04006KT P6SM BKN150
     FM031800 07007KT P6SM BKN090
     FM040000 04003KT P6SM BKN060
     FM040800 08006KT P6SM VCSH BKN045=

USA.gov is the U.S. government's official web portal to all federal, state and local government web resources and services.